createdAt,value
2019-06-20T00:00:48.205Z,17.59
2019-06-20T00:01:48.239Z,17.71
2019-06-20T00:02:48.276Z,17.82
2019-06-20T00:03:48.312Z,17.82
2019-06-20T00:04:48.348Z,17.91
2019-06-20T00:05:48.385Z,18.09
2019-06-20T00:06:48.420Z,18.03
2019-06-20T00:07:48.455Z,18.06
2019-06-20T00:08:48.504Z,18.28
2019-06-20T00:09:48.527Z,18.41
2019-06-20T00:10:48.564Z,18.41
2019-06-20T00:11:48.604Z,18.60
2019-06-20T00:12:59.796Z,18.70
2019-06-20T00:13:48.672Z,18.86
2019-06-20T00:14:48.706Z,18.98
2019-06-20T00:15:48.744Z,19.17
2019-06-20T00:16:48.780Z,19.27
2019-06-20T00:17:48.815Z,19.17
2019-06-20T00:18:48.855Z,19.24
2019-06-20T00:19:48.890Z,19.35
2019-06-20T00:20:48.927Z,19.44
2019-06-20T00:21:48.963Z,19.37
2019-06-20T00:22:49.029Z,19.37
2019-06-20T00:23:49.035Z,19.32
2019-06-20T00:24:49.073Z,19.39
2019-06-20T00:25:49.111Z,19.39
2019-06-20T00:26:49.214Z,19.38
2019-06-20T00:27:49.183Z,19.39
2019-06-20T00:28:49.222Z,19.34
2019-06-20T00:29:49.256Z,19.34
2019-06-20T00:30:49.292Z,19.38
2019-06-20T00:31:49.336Z,19.34
2019-06-20T00:32:49.370Z,19.41
2019-06-20T00:33:49.410Z,19.49
2019-06-20T00:34:49.453Z,19.56
2019-06-20T00:35:49.477Z,19.56
2019-06-20T00:36:51.373Z,19.56
2019-06-20T00:37:49.554Z,19.56
2019-06-20T00:38:49.589Z,19.47
2019-06-20T00:39:49.630Z,19.49
2019-06-20T00:40:49.664Z,19.45
2019-06-20T00:41:49.700Z,19.39
2019-06-20T00:42:49.739Z,19.39
2019-06-20T00:43:49.774Z,19.44
2019-06-20T00:44:49.812Z,19.52
2019-06-20T00:45:49.849Z,19.49
2019-06-20T00:46:49.892Z,19.45
2019-06-20T00:47:49.926Z,19.48
2019-06-20T00:48:49.966Z,19.45
2019-06-20T00:49:50.000Z,19.49
2019-06-20T00:50:50.039Z,19.45
2019-06-20T00:51:50.073Z,19.41
2019-06-20T00:52:50.112Z,19.37
2019-06-20T00:53:50.153Z,19.35
2019-06-20T00:54:50.184Z,19.37
2019-06-20T00:55:50.227Z,19.35
2019-06-20T00:56:50.263Z,19.38
2019-06-20T00:57:50.295Z,19.44
2019-06-20T00:58:50.333Z,19.62
2019-06-20T00:59:50.369Z,19.63
2019-06-20T01:00:50.408Z,19.66
2019-06-20T01:01:50.447Z,19.71
2019-06-20T01:02:50.544Z,19.74
2019-06-20T01:03:50.525Z,19.71
2019-06-20T01:04:50.557Z,19.71
2019-06-20T01:05:50.593Z,19.62
2019-06-20T01:06:50.634Z,19.71
2019-06-20T01:07:50.671Z,19.56
2019-06-20T01:08:50.707Z,19.60
2019-06-20T01:09:50.744Z,19.48
2019-06-20T01:10:50.785Z,19.62
2019-06-20T01:11:50.821Z,19.55
2019-06-20T01:12:50.855Z,19.48
2019-06-20T01:13:52.876Z,19.48
2019-06-20T01:14:50.932Z,19.55
2019-06-20T01:15:50.969Z,19.47
2019-06-20T01:16:51.003Z,19.55
2019-06-20T01:17:51.043Z,19.63
2019-06-20T01:18:51.079Z,19.55
2019-06-20T01:19:51.115Z,19.60
2019-06-20T01:20:51.159Z,19.57
2019-06-20T01:21:51.194Z,19.60
2019-06-20T01:22:51.230Z,19.57
2019-06-20T01:23:51.267Z,19.48
2019-06-20T01:24:51.302Z,19.71
2019-06-20T01:25:51.339Z,19.66
2019-06-20T01:26:51.376Z,19.64
2019-06-20T01:27:51.417Z,19.71
2019-06-20T01:28:51.451Z,19.71
2019-06-20T01:29:51.490Z,19.67
2019-06-20T01:30:51.532Z,19.72
2019-06-20T01:31:51.580Z,19.70
2019-06-20T01:32:51.603Z,19.63
2019-06-20T01:33:51.638Z,19.63
2019-06-20T01:34:51.676Z,19.66
2019-06-20T01:35:51.724Z,19.55
2019-06-20T01:36:51.751Z,19.70
2019-06-20T01:37:51.787Z,19.67
2019-06-20T01:38:51.824Z,19.56
2019-06-20T01:39:51.863Z,19.63
2019-06-20T01:40:51.901Z,19.67
2019-06-20T01:41:51.937Z,19.67
2019-06-20T01:42:51.977Z,19.63
2019-06-20T01:43:52.012Z,19.53
2019-06-20T01:44:52.053Z,19.70
2019-06-20T01:45:52.087Z,19.66
2019-06-20T01:46:52.138Z,19.67
2019-06-20T01:47:52.165Z,19.63
2019-06-20T01:48:52.201Z,19.71
2019-06-20T01:49:52.240Z,19.71
2019-06-20T01:50:52.274Z,19.66
2019-06-20T01:51:52.310Z,19.71
2019-06-20T01:52:52.353Z,19.67
2019-06-20T01:53:52.387Z,19.67
2019-06-20T01:54:52.422Z,19.62
2019-06-20T01:55:52.460Z,19.56
2019-06-20T01:56:52.520Z,19.55
2019-06-20T01:57:52.534Z,19.56
2019-06-20T01:58:52.574Z,19.67
2019-06-20T01:59:52.609Z,19.70
2019-06-20T02:00:52.648Z,19.63
2019-06-20T02:01:52.685Z,19.56
2019-06-20T02:02:52.740Z,19.57
2019-06-20T02:03:52.760Z,19.47
2019-06-20T02:04:52.798Z,19.53
2019-06-20T02:05:52.835Z,19.55
2019-06-20T02:06:52.878Z,19.56
2019-06-20T02:07:52.912Z,19.57
2019-06-20T02:08:52.949Z,19.60
2019-06-20T02:09:52.989Z,19.64
2019-06-20T02:10:53.022Z,19.66
2019-06-20T02:11:53.061Z,19.57
2019-06-20T02:12:53.104Z,19.56
2019-06-20T02:14:06.381Z,19.66
2019-06-20T02:14:53.176Z,19.70
2019-06-20T02:15:53.209Z,19.63
2019-06-20T02:16:53.248Z,19.67
2019-06-20T02:17:53.284Z,19.71
2019-06-20T02:18:53.323Z,19.71
2019-06-20T02:19:53.360Z,19.71
2019-06-20T02:20:53.402Z,19.84
2019-06-20T02:21:53.435Z,19.81
2019-06-20T02:22:53.473Z,19.79
2019-06-20T02:23:53.510Z,19.78
2019-06-20T02:24:53.548Z,19.87
2019-06-20T02:25:53.586Z,19.89
2019-06-20T02:26:53.624Z,19.87
2019-06-20T02:27:53.663Z,19.87
2019-06-20T02:28:53.698Z,19.96
2019-06-20T02:29:53.735Z,19.82
2019-06-20T02:30:53.775Z,19.82
2019-06-20T02:31:53.817Z,19.92
2019-06-20T02:32:53.852Z,19.84
2019-06-20T02:33:53.886Z,19.87
2019-06-20T02:34:53.928Z,19.84
2019-06-20T02:35:53.972Z,19.99
2019-06-20T02:36:54.021Z,19.94
2019-06-20T02:37:54.041Z,19.89
2019-06-20T02:38:54.079Z,19.89
2019-06-20T02:39:54.115Z,20.02
2019-06-20T02:40:54.151Z,19.94
2019-06-20T02:41:54.190Z,20.00
2019-06-20T02:42:54.235Z,20.04
2019-06-20T02:43:54.265Z,20.03
2019-06-20T02:44:54.304Z,20.08
2019-06-20T02:45:54.342Z,20.11
2019-06-20T02:46:54.379Z,20.26
2019-06-20T02:47:54.423Z,20.24
2019-06-20T02:48:54.458Z,20.26
2019-06-20T02:49:54.495Z,20.33
2019-06-20T02:50:54.529Z,20.34
2019-06-20T02:51:54.573Z,20.33
2019-06-20T02:52:54.614Z,20.33
2019-06-20T02:53:54.645Z,20.32
2019-06-20T02:54:54.683Z,20.33
2019-06-20T02:55:54.720Z,20.34
2019-06-20T02:56:54.765Z,20.27
2019-06-20T02:57:54.798Z,20.49
2019-06-20T02:58:54.838Z,20.49
2019-06-20T02:59:54.873Z,20.49
2019-06-20T03:00:54.915Z,20.50
2019-06-20T03:01:54.952Z,20.55
2019-06-20T03:02:54.988Z,20.53
2019-06-20T03:03:55.026Z,20.74
2019-06-20T03:04:55.066Z,20.74
2019-06-20T03:05:55.105Z,20.74
2019-06-20T03:06:55.142Z,20.71
2019-06-20T03:07:55.188Z,20.83
2019-06-20T03:08:55.219Z,20.71
2019-06-20T03:09:55.258Z,20.73
2019-06-20T03:10:55.296Z,20.74
2019-06-20T03:11:55.336Z,20.80
2019-06-20T03:12:55.374Z,20.78
2019-06-20T03:13:55.413Z,20.90
2019-06-20T03:14:55.451Z,20.93
2019-06-20T03:15:55.489Z,20.95
2019-06-20T03:16:55.527Z,21.05
2019-06-20T03:17:55.567Z,21.13
2019-06-20T03:18:55.609Z,21.20
2019-06-20T03:19:55.642Z,21.20
2019-06-20T03:20:55.683Z,21.22
2019-06-20T03:21:55.724Z,21.28
2019-06-20T03:22:55.760Z,21.14
2019-06-20T03:23:55.820Z,21.30
2019-06-20T03:24:55.840Z,21.30
2019-06-20T03:25:55.877Z,21.50
2019-06-20T03:26:55.917Z,21.62
2019-06-20T03:27:55.955Z,21.74
2019-06-20T03:28:55.999Z,21.80
2019-06-20T03:29:56.035Z,21.97
2019-06-20T03:30:56.087Z,22.07
2019-06-20T03:31:56.116Z,22.04
2019-06-20T03:32:56.156Z,22.16
2019-06-20T03:33:56.193Z,22.21
2019-06-20T03:34:56.231Z,22.22
2019-06-20T03:35:56.275Z,22.16
2019-06-20T03:36:56.314Z,22.08
2019-06-20T03:37:56.352Z,22.01
2019-06-20T03:38:56.391Z,21.92
2019-06-20T03:39:56.430Z,21.91
2019-06-20T03:40:56.472Z,22.00
2019-06-20T03:41:56.509Z,21.84
2019-06-20T03:42:56.550Z,21.77
2019-06-20T03:43:59.022Z,21.58
2019-06-20T03:45:02.235Z,21.44
2019-06-20T03:45:56.670Z,21.43
2019-06-20T03:46:56.709Z,21.32
2019-06-20T03:47:56.755Z,21.32
2019-06-20T03:48:56.791Z,21.25
2019-06-20T03:49:56.829Z,21.19
2019-06-20T03:50:56.869Z,21.13
2019-06-20T03:51:56.909Z,21.23
2019-06-20T03:52:56.960Z,21.15
2019-06-20T03:53:56.990Z,21.20
2019-06-20T03:54:57.030Z,21.11
2019-06-20T03:55:57.072Z,21.15
2019-06-20T03:56:57.111Z,21.03
2019-06-20T03:57:57.148Z,21.14
2019-06-20T03:58:57.191Z,21.10
2019-06-20T03:59:57.225Z,21.14
2019-06-20T04:00:57.271Z,21.17
2019-06-20T04:01:57.305Z,21.14
2019-06-20T04:02:57.345Z,21.11
2019-06-20T04:03:57.391Z,21.13
2019-06-20T04:04:57.429Z,21.25
2019-06-20T04:05:57.478Z,21.26
2019-06-20T04:06:57.503Z,21.29
2019-06-20T04:07:57.542Z,21.41
2019-06-20T04:08:57.582Z,21.48
2019-06-20T04:09:57.632Z,21.43
2019-06-20T04:10:57.664Z,21.66
2019-06-20T04:11:57.703Z,21.69
2019-06-20T04:12:57.742Z,21.81
2019-06-20T04:13:57.781Z,21.96
2019-06-20T04:14:57.823Z,22.07
2019-06-20T04:15:57.871Z,22.07
2019-06-20T04:16:57.902Z,22.16
2019-06-20T04:17:57.939Z,22.23
2019-06-20T04:18:57.980Z,22.18
2019-06-20T04:19:58.017Z,22.31
2019-06-20T04:20:58.059Z,22.55
2019-06-20T04:21:58.097Z,22.63
2019-06-20T04:22:58.140Z,22.86
2019-06-20T04:23:58.177Z,23.01
2019-06-20T04:24:58.218Z,23.11
2019-06-20T04:25:58.258Z,23.33
2019-06-20T04:26:58.299Z,23.48
2019-06-20T04:27:58.340Z,23.54
2019-06-20T04:28:58.378Z,23.82
2019-06-20T04:29:58.418Z,24.04
2019-06-20T04:30:58.457Z,24.18
2019-06-20T04:31:58.554Z,24.36
2019-06-20T04:32:58.540Z,24.62
2019-06-20T04:33:58.579Z,24.55
2019-06-20T04:34:58.620Z,24.75
2019-06-20T04:35:58.663Z,24.68
2019-06-20T04:36:58.705Z,24.74
2019-06-20T04:37:58.756Z,24.79
2019-06-20T04:38:58.794Z,24.55
2019-06-20T04:39:58.830Z,24.34
2019-06-20T04:40:58.869Z,24.44
2019-06-20T04:41:58.912Z,24.75
2019-06-20T04:42:58.957Z,24.89
2019-06-20T04:43:58.998Z,25.11
2019-06-20T04:44:59.041Z,25.29
2019-06-20T04:45:59.083Z,25.43
2019-06-20T04:46:59.124Z,25.86
2019-06-20T04:47:59.165Z,25.99
2019-06-20T04:48:59.210Z,26.19
2019-06-20T04:49:59.251Z,25.85
2019-06-20T04:50:59.296Z,25.52
2019-06-20T04:51:59.339Z,25.49
2019-06-20T04:52:59.382Z,25.49
2019-06-20T04:53:59.425Z,25.61
2019-06-20T04:54:59.471Z,25.71
2019-06-20T04:55:59.512Z,25.85
2019-06-20T04:56:59.559Z,25.85
2019-06-20T04:57:59.601Z,25.77
2019-06-20T04:58:59.647Z,25.95
2019-06-20T04:59:59.704Z,25.96
2019-06-20T05:00:59.741Z,26.19
2019-06-20T05:01:59.778Z,25.86
2019-06-20T05:02:59.824Z,25.99
2019-06-20T05:03:59.872Z,25.80
2019-06-20T05:04:59.912Z,25.80
2019-06-20T05:05:59.956Z,25.40
2019-06-20T05:07:00.000Z,25.49
2019-06-20T05:08:00.046Z,25.66
2019-06-20T05:09:00.091Z,26.10
2019-06-20T05:10:00.171Z,26.82
2019-06-20T05:11:00.185Z,27.08
2019-06-20T05:12:00.268Z,27.20
2019-06-20T05:13:00.272Z,27.58
2019-06-20T05:14:00.317Z,27.81
2019-06-20T05:15:00.364Z,27.82
2019-06-20T05:16:00.409Z,28.03
2019-06-20T05:17:00.456Z,28.49
2019-06-20T05:18:00.503Z,28.12
2019-06-20T05:19:00.550Z,27.45
2019-06-20T05:20:00.594Z,26.79
2019-06-20T05:21:00.640Z,26.81
2019-06-20T05:22:00.690Z,26.70
2019-06-20T05:23:00.732Z,26.49
2019-06-20T05:24:01.015Z,27.52
2019-06-20T05:25:00.829Z,28.46
2019-06-20T05:26:00.870Z,29.43
2019-06-20T05:27:00.917Z,29.62
2019-06-20T05:28:00.962Z,29.44
2019-06-20T05:29:01.010Z,29.43
2019-06-20T05:30:01.057Z,28.97
2019-06-20T05:31:01.107Z,29.53
2019-06-20T05:32:01.151Z,29.49
2019-06-20T05:33:01.200Z,29.10
2019-06-20T05:34:01.249Z,29.44
2019-06-20T05:35:03.123Z,29.81
2019-06-20T05:36:01.342Z,29.92
2019-06-20T05:37:01.390Z,28.71
2019-06-20T05:38:01.437Z,29.10
2019-06-20T05:39:01.488Z,29.71
2019-06-20T05:40:01.567Z,29.21
2019-06-20T05:41:01.581Z,29.12
2019-06-20T05:42:01.632Z,28.77
2019-06-20T05:43:01.687Z,28.33
2019-06-20T05:44:01.726Z,28.50
2019-06-20T05:45:01.777Z,28.83
2019-06-20T05:46:09.237Z,29.53
2019-06-20T05:47:12.544Z,29.76
2019-06-20T05:48:01.921Z,29.76
2019-06-20T05:49:01.971Z,29.18
2019-06-20T05:50:02.052Z,29.02
2019-06-20T05:51:02.067Z,28.50
2019-06-20T05:52:02.118Z,28.23
2019-06-20T05:53:02.166Z,27.72
2019-06-20T05:54:02.218Z,27.47
2019-06-20T05:55:02.263Z,27.28
2019-06-20T05:56:02.315Z,27.29
2019-06-20T05:57:03.740Z,27.03
2019-06-20T05:58:02.411Z,27.20
2019-06-20T05:59:02.461Z,27.13
2019-06-20T06:00:02.513Z,26.86
2019-06-20T06:01:02.556Z,27.25
2019-06-20T06:02:02.625Z,27.10
2019-06-20T06:03:06.834Z,27.71
2019-06-20T06:04:02.757Z,27.44
2019-06-20T06:05:02.750Z,26.73
2019-06-20T06:06:02.795Z,26.71
2019-06-20T06:07:02.843Z,26.59
2019-06-20T06:08:03.786Z,26.30
2019-06-20T06:09:02.939Z,26.30
2019-06-20T06:10:04.051Z,26.10
2019-06-20T06:11:03.036Z,26.11
2019-06-20T06:12:03.081Z,25.98
2019-06-20T06:13:03.186Z,26.23
2019-06-20T06:14:03.180Z,25.85
2019-06-20T06:15:03.226Z,25.48
2019-06-20T06:16:03.331Z,25.74
2019-06-20T06:17:03.635Z,25.98
2019-06-20T06:18:03.364Z,26.37
2019-06-20T06:19:03.409Z,26.33
2019-06-20T06:20:03.460Z,26.16
2019-06-20T06:21:03.503Z,26.42
2019-06-20T06:22:03.557Z,26.36
2019-06-20T06:23:03.598Z,26.03
2019-06-20T06:24:03.645Z,25.73
2019-06-20T06:25:03.691Z,26.06
2019-06-20T06:26:03.736Z,26.13
2019-06-20T06:27:03.785Z,26.29
2019-06-20T06:28:03.830Z,27.40
2019-06-20T06:29:03.878Z,27.57
2019-06-20T06:30:03.921Z,27.78
2019-06-20T06:31:03.978Z,27.55
2019-06-20T06:32:04.016Z,28.47
2019-06-20T06:33:04.083Z,27.93
2019-06-20T06:34:04.111Z,28.71
2019-06-20T06:35:04.157Z,28.68
2019-06-20T06:36:04.206Z,28.28
2019-06-20T06:37:04.251Z,28.82
2019-06-20T06:38:04.310Z,28.09
2019-06-20T06:39:04.384Z,29.16
2019-06-20T06:40:04.392Z,29.15
2019-06-20T06:41:04.445Z,28.09
2019-06-20T06:42:04.498Z,27.45
2019-06-20T06:43:04.541Z,27.00
2019-06-20T06:44:04.587Z,26.86
2019-06-20T06:45:04.634Z,26.78
2019-06-20T06:46:04.682Z,26.70
2019-06-20T06:47:04.735Z,26.11
2019-06-20T06:48:04.782Z,25.77
2019-06-20T06:49:04.829Z,25.74
2019-06-20T06:50:04.877Z,26.73
2019-06-20T06:51:04.922Z,26.71
2019-06-20T06:52:04.984Z,27.03
2019-06-20T06:53:05.019Z,26.59
2019-06-20T06:54:05.070Z,26.01
2019-06-20T06:55:05.114Z,25.54
2019-06-20T06:56:05.163Z,25.51
2019-06-20T06:57:05.207Z,26.34
2019-06-20T06:58:05.275Z,26.33
2019-06-20T06:59:05.302Z,27.34
2019-06-20T07:00:05.355Z,27.98
2019-06-20T07:01:05.393Z,27.22
2019-06-20T07:02:05.446Z,27.81
2019-06-20T07:03:05.488Z,28.68
2019-06-20T07:04:05.535Z,29.47
2019-06-20T07:05:05.584Z,28.55
2019-06-20T07:06:05.628Z,28.89
2019-06-20T07:07:05.676Z,28.33
2019-06-20T07:08:05.726Z,28.34
2019-06-20T07:09:05.786Z,27.55
2019-06-20T07:10:05.821Z,27.10
2019-06-20T07:11:05.868Z,26.59
2019-06-20T07:12:05.927Z,26.37
2019-06-20T07:13:05.966Z,26.79
2019-06-20T07:14:06.013Z,27.15
2019-06-20T07:15:06.064Z,27.29
2019-06-20T07:16:06.111Z,28.16
2019-06-20T07:17:06.159Z,28.64
2019-06-20T07:18:06.205Z,28.72
2019-06-20T07:19:06.255Z,29.15
2019-06-20T07:20:06.303Z,29.68
2019-06-20T07:21:06.352Z,29.40
2019-06-20T07:22:06.404Z,29.92
2019-06-20T07:23:06.450Z,29.43
2019-06-20T07:24:06.500Z,29.06
2019-06-20T07:25:06.555Z,28.84
2019-06-20T07:26:06.599Z,27.64
2019-06-20T07:27:06.652Z,26.59
2019-06-20T07:28:06.700Z,26.06
2019-06-20T07:29:06.749Z,25.40
2019-06-20T07:30:06.803Z,25.14
2019-06-20T07:31:06.851Z,24.92
2019-06-20T07:32:06.895Z,24.74
2019-06-20T07:33:06.944Z,24.75
2019-06-20T07:34:06.994Z,24.65
2019-06-20T07:35:07.041Z,24.78
2019-06-20T07:36:07.090Z,24.75
2019-06-20T07:37:07.135Z,24.85
2019-06-20T07:38:07.183Z,24.88
2019-06-20T07:39:07.231Z,25.16
2019-06-20T07:40:07.274Z,25.12
2019-06-20T07:41:07.320Z,25.07
2019-06-20T07:42:07.365Z,25.00
2019-06-20T07:43:07.415Z,25.14
2019-06-20T07:44:07.464Z,25.01
2019-06-20T07:45:07.506Z,25.11
2019-06-20T07:46:07.551Z,25.31
2019-06-20T07:47:17.108Z,25.36
2019-06-20T07:48:07.648Z,25.40
2019-06-20T07:49:07.689Z,25.51
2019-06-20T07:50:07.732Z,25.67
2019-06-20T07:51:07.776Z,25.51
2019-06-20T07:52:07.822Z,25.46
2019-06-20T07:53:07.878Z,25.62
2019-06-20T07:54:07.912Z,25.78
2019-06-20T07:55:07.963Z,25.83
2019-06-20T07:56:09.511Z,26.44
2019-06-20T07:57:08.055Z,27.50
2019-06-20T07:58:08.093Z,28.00
2019-06-20T07:59:08.187Z,28.52
2019-06-20T08:00:08.185Z,29.07
2019-06-20T08:01:08.232Z,29.40
2019-06-20T08:02:08.279Z,29.71
2019-06-20T08:03:08.320Z,30.16
2019-06-20T08:04:08.373Z,30.86
2019-06-20T08:05:08.418Z,31.35
2019-06-20T08:06:08.471Z,31.63
2019-06-20T08:07:08.515Z,31.52
2019-06-20T08:08:08.564Z,32.22
2019-06-20T08:09:08.618Z,32.07
2019-06-20T08:10:08.686Z,31.86
2019-06-20T08:11:08.708Z,31.45
2019-06-20T08:12:08.762Z,31.54
2019-06-20T08:13:08.811Z,31.15
2019-06-20T08:14:08.863Z,31.18
2019-06-20T08:15:15.037Z,31.37
2019-06-20T08:16:08.975Z,31.77
2019-06-20T08:17:09.018Z,31.41
2019-06-20T08:18:09.094Z,31.14
2019-06-20T08:19:09.125Z,31.30
2019-06-20T08:20:09.169Z,31.02
2019-06-20T08:21:09.221Z,30.69
2019-06-20T08:22:09.273Z,31.05
2019-06-20T08:23:09.326Z,30.92
2019-06-20T08:24:09.456Z,30.54
2019-06-20T08:25:09.431Z,30.31
2019-06-20T08:26:09.490Z,29.69
2019-06-20T08:27:09.539Z,30.29
2019-06-20T08:28:09.592Z,30.78
2019-06-20T08:29:20.313Z,30.86
2019-06-20T08:30:09.763Z,30.59
2019-06-20T08:31:09.749Z,30.23
2019-06-20T08:32:09.802Z,30.20
2019-06-20T08:33:12.122Z,30.29
2019-06-20T08:34:09.910Z,30.10
2019-06-20T08:35:09.961Z,29.80
2019-06-20T08:36:10.016Z,30.10
2019-06-20T08:37:10.067Z,30.35
2019-06-20T08:38:10.120Z,30.69
2019-06-20T08:39:10.173Z,30.70
2019-06-20T08:40:10.226Z,30.89
2019-06-20T08:41:10.280Z,30.56
2019-06-20T08:42:10.331Z,30.35
2019-06-20T08:43:10.386Z,30.39
2019-06-20T08:44:10.438Z,29.94
2019-06-20T08:45:10.490Z,29.71
2019-06-20T08:46:10.625Z,30.03
2019-06-20T08:47:10.596Z,30.02
2019-06-20T08:48:10.651Z,30.51
2019-06-20T08:49:10.703Z,30.92
2019-06-20T08:50:10.756Z,31.55
2019-06-20T08:51:14.347Z,31.59
2019-06-20T08:52:10.866Z,32.12
2019-06-20T08:53:10.916Z,31.55
2019-06-20T08:54:10.970Z,31.10
2019-06-20T08:55:11.030Z,31.23
2019-06-20T08:56:11.080Z,31.22
2019-06-20T08:57:11.133Z,31.48
2019-06-20T08:58:11.185Z,32.27
2019-06-20T08:59:23.924Z,32.11
2019-06-20T09:00:11.312Z,31.72
2019-06-20T09:01:11.354Z,30.74
2019-06-20T09:02:11.399Z,31.39
2019-06-20T09:03:11.455Z,31.23
2019-06-20T09:04:11.511Z,31.55
2019-06-20T09:05:11.564Z,31.66
2019-06-20T09:06:11.618Z,31.15
2019-06-20T09:07:11.682Z,31.10
2019-06-20T09:08:12.133Z,31.04
2019-06-20T09:09:11.783Z,30.85
2019-06-20T09:10:11.850Z,31.00
2019-06-20T09:11:11.887Z,31.04
2019-06-20T09:12:11.943Z,30.63
2019-06-20T09:13:11.996Z,30.76
2019-06-20T09:14:12.046Z,31.11
2019-06-20T09:15:12.103Z,31.02
2019-06-20T09:16:24.111Z,31.00
2019-06-20T09:17:12.215Z,31.44
2019-06-20T09:18:12.270Z,31.44
2019-06-20T09:19:12.319Z,31.44
2019-06-20T09:20:12.385Z,30.86
2019-06-20T09:21:12.429Z,30.38
2019-06-20T09:22:12.478Z,29.80
2019-06-20T09:23:12.535Z,29.34
2019-06-20T09:24:12.588Z,29.16
2019-06-20T09:25:12.655Z,29.80
2019-06-20T09:26:12.694Z,28.82
2019-06-20T09:27:12.748Z,28.57
2019-06-20T09:28:12.799Z,28.38
2019-06-20T09:29:12.856Z,28.19
2019-06-20T09:30:12.962Z,27.85
2019-06-20T09:31:12.960Z,27.53
2019-06-20T09:32:13.015Z,27.76
2019-06-20T09:33:13.077Z,27.22
2019-06-20T09:34:13.128Z,27.11
2019-06-20T09:35:13.179Z,27.01
2019-06-20T09:36:13.212Z,26.61
2019-06-20T09:37:13.264Z,26.70
2019-06-20T09:38:13.319Z,26.78
2019-06-20T09:39:13.360Z,27.07
2019-06-20T09:40:13.427Z,27.78
2019-06-20T09:41:13.459Z,28.16
2019-06-20T09:42:13.507Z,28.12
2019-06-20T09:43:26.719Z,28.13
2019-06-20T09:44:13.608Z,28.10
2019-06-20T09:45:13.661Z,28.04
2019-06-20T09:46:13.704Z,27.94
2019-06-20T09:47:13.752Z,27.94
2019-06-20T09:48:13.804Z,27.47
2019-06-20T09:49:13.852Z,27.37
2019-06-20T09:50:13.897Z,26.98
2019-06-20T09:51:13.947Z,27.16
2019-06-20T09:52:13.998Z,27.29
2019-06-20T09:53:14.046Z,27.30
2019-06-20T09:54:14.094Z,27.33
2019-06-20T09:55:14.141Z,27.34
2019-06-20T09:56:14.187Z,27.68
2019-06-20T09:57:14.235Z,27.43
2019-06-20T09:58:14.282Z,27.23
2019-06-20T09:59:27.154Z,27.61
2019-06-20T10:00:14.381Z,27.76
2019-06-20T10:01:14.425Z,28.00
2019-06-20T10:02:14.473Z,28.12
2019-06-20T10:03:14.519Z,28.31
2019-06-20T10:04:14.569Z,28.23
2019-06-20T10:05:14.616Z,28.20
2019-06-20T10:06:14.901Z,27.81
2019-06-20T10:07:14.711Z,27.76
2019-06-20T10:08:14.781Z,28.34
2019-06-20T10:09:14.806Z,28.52
2019-06-20T10:10:14.857Z,29.21
2019-06-20T10:11:14.901Z,28.70
2019-06-20T10:12:14.948Z,29.09
2019-06-20T10:13:14.997Z,30.10
2019-06-20T10:14:15.048Z,30.96
2019-06-20T10:15:15.092Z,31.54
2019-06-20T10:16:15.141Z,31.85
2019-06-20T10:17:15.192Z,32.53
2019-06-20T10:18:15.243Z,32.66
2019-06-20T10:19:15.289Z,33.15
2019-06-20T10:20:15.350Z,32.60
2019-06-20T10:21:15.392Z,32.15
2019-06-20T10:22:15.445Z,31.92
2019-06-20T10:23:15.493Z,31.55
2019-06-20T10:24:15.550Z,31.47
2019-06-20T10:25:15.597Z,32.01
2019-06-20T10:26:15.648Z,32.45
2019-06-20T10:27:15.700Z,32.26
2019-06-20T10:28:15.756Z,32.27
2019-06-20T10:29:15.805Z,32.53
2019-06-20T10:30:15.857Z,32.75
2019-06-20T10:31:15.909Z,32.29
2019-06-20T10:32:15.965Z,31.70
2019-06-20T10:33:16.023Z,30.88
2019-06-20T10:34:16.068Z,30.70
2019-06-20T10:35:16.122Z,29.79
2019-06-20T10:36:16.175Z,30.24
2019-06-20T10:37:16.228Z,30.81
2019-06-20T10:38:16.276Z,30.81
2019-06-20T10:39:16.333Z,31.50
2019-06-20T10:40:16.385Z,32.48
2019-06-20T10:41:16.437Z,31.95
2019-06-20T10:42:16.489Z,31.15
2019-06-20T10:43:16.542Z,30.46
2019-06-20T10:44:16.596Z,30.10
2019-06-20T10:45:16.647Z,29.62
2019-06-20T10:46:16.703Z,29.46
2019-06-20T10:47:31.349Z,29.42
2019-06-20T10:48:16.804Z,30.11
2019-06-20T10:49:16.855Z,30.16
2019-06-20T10:50:16.903Z,29.87
2019-06-20T10:51:16.953Z,30.16
2019-06-20T10:52:17.005Z,30.23
2019-06-20T10:53:17.058Z,29.79
2019-06-20T10:54:17.106Z,29.73
2019-06-20T10:55:17.167Z,29.59
2019-06-20T10:56:17.209Z,29.52
2019-06-20T10:57:17.262Z,29.35
2019-06-20T10:58:17.309Z,29.25
2019-06-20T10:59:17.364Z,29.12
2019-06-20T11:00:30.170Z,29.52
2019-06-20T11:01:17.461Z,30.21
2019-06-20T11:02:17.512Z,30.44
2019-06-20T11:03:17.583Z,30.89
2019-06-20T11:04:17.609Z,30.73
2019-06-20T11:05:17.681Z,30.59
2019-06-20T11:06:17.708Z,31.02
2019-06-20T11:07:17.760Z,31.23
2019-06-20T11:08:17.823Z,31.63
2019-06-20T11:09:17.862Z,31.69
2019-06-20T11:10:17.910Z,31.54
2019-06-20T11:11:17.960Z,31.72
2019-06-20T11:12:18.011Z,31.64
2019-06-20T11:13:18.066Z,32.27
2019-06-20T11:14:18.113Z,32.53
2019-06-20T11:15:18.168Z,32.41
2019-06-20T11:16:18.225Z,32.11
2019-06-20T11:17:18.272Z,32.46
2019-06-20T11:18:18.421Z,31.57
2019-06-20T11:19:18.450Z,31.45
2019-06-20T11:20:18.427Z,30.99
2019-06-20T11:21:18.480Z,30.65
2019-06-20T11:22:18.534Z,30.46
2019-06-20T11:23:18.585Z,30.76
2019-06-20T11:24:18.636Z,31.42
2019-06-20T11:25:19.545Z,32.04
2019-06-20T11:26:18.740Z,32.73
2019-06-20T11:27:18.805Z,33.28
2019-06-20T11:28:18.846Z,32.98
2019-06-20T11:29:18.896Z,32.63
2019-06-20T11:30:18.951Z,33.29
2019-06-20T11:31:19.008Z,33.72
2019-06-20T11:32:19.059Z,33.44
2019-06-20T11:33:19.145Z,33.44
2019-06-20T11:34:19.160Z,32.78
2019-06-20T11:35:19.212Z,32.27
2019-06-20T11:36:19.268Z,31.92
2019-06-20T11:37:19.317Z,31.25
2019-06-20T11:38:19.374Z,31.28
2019-06-20T11:39:19.423Z,31.95
2019-06-20T11:40:19.476Z,31.81
2019-06-20T11:41:19.538Z,31.98
2019-06-20T11:42:19.580Z,32.01
2019-06-20T11:43:19.641Z,31.77
2019-06-20T11:44:19.686Z,32.46
2019-06-20T11:45:19.742Z,32.81
2019-06-20T11:46:19.798Z,33.16
2019-06-20T11:47:20.627Z,33.69
2019-06-20T11:48:19.898Z,34.35
2019-06-20T11:49:19.953Z,34.70
2019-06-20T11:50:20.003Z,34.75
2019-06-20T11:51:20.061Z,35.00
2019-06-20T11:52:20.112Z,34.59
2019-06-20T11:53:20.172Z,34.88
2019-06-20T11:54:20.218Z,34.96
2019-06-20T11:55:20.277Z,34.58
2019-06-20T11:56:20.326Z,34.75
2019-06-20T11:57:20.381Z,34.96
2019-06-20T11:58:23.424Z,34.26
2019-06-20T11:59:20.487Z,33.70
2019-06-20T12:00:20.546Z,32.88
2019-06-20T12:01:32.259Z,32.15
2019-06-20T12:02:20.651Z,31.74
2019-06-20T12:03:20.707Z,32.30
2019-06-20T12:04:20.759Z,32.51
2019-06-20T12:05:20.813Z,32.88
2019-06-20T12:06:20.865Z,32.83
2019-06-20T12:07:20.921Z,32.98
2019-06-20T12:08:20.975Z,33.32
2019-06-20T12:09:21.028Z,33.91
2019-06-20T12:10:21.086Z,34.50
2019-06-20T12:11:21.132Z,34.09
2019-06-20T12:12:21.205Z,33.45
2019-06-20T12:13:21.243Z,33.61
2019-06-20T12:14:21.292Z,33.98
2019-06-20T12:15:21.347Z,34.24
2019-06-20T12:16:21.404Z,34.38
2019-06-20T12:17:21.454Z,34.73
2019-06-20T12:18:21.507Z,35.00
2019-06-20T12:19:21.577Z,35.54
2019-06-20T12:20:21.620Z,36.26
2019-06-20T12:21:21.722Z,36.22
2019-06-20T12:22:21.724Z,35.74
2019-06-20T12:23:21.780Z,36.33
2019-06-20T12:24:21.841Z,35.90
2019-06-20T12:25:21.890Z,36.05
2019-06-20T12:26:21.945Z,35.74
2019-06-20T12:27:22.013Z,34.69
2019-06-20T12:28:22.055Z,33.60
2019-06-20T12:29:22.110Z,33.85
2019-06-20T12:30:22.173Z,33.70
2019-06-20T12:31:22.222Z,33.65
2019-06-20T12:32:22.278Z,34.50
2019-06-20T12:33:22.331Z,34.47
2019-06-20T12:34:22.386Z,34.98
2019-06-20T12:35:22.439Z,34.47
2019-06-20T12:36:22.497Z,35.26
2019-06-20T12:37:22.549Z,35.56
2019-06-20T12:38:22.608Z,35.66
2019-06-20T12:39:22.660Z,35.53
2019-06-20T12:40:22.713Z,34.96
2019-06-20T12:41:22.774Z,34.76
2019-06-20T12:42:22.827Z,35.47
2019-06-20T12:43:22.879Z,36.26
2019-06-20T12:44:22.950Z,35.88
2019-06-20T12:45:22.990Z,34.82
2019-06-20T12:46:23.051Z,34.07
2019-06-20T12:47:23.103Z,32.91
2019-06-20T12:48:23.153Z,32.71
2019-06-20T12:49:24.083Z,32.93
2019-06-20T12:50:23.262Z,32.56
2019-06-20T12:51:23.319Z,33.08
2019-06-20T12:52:23.369Z,33.26
2019-06-20T12:53:23.422Z,32.98